createdAt,value
2023-03-12T00:02:59.408Z,19.27
2023-03-12T00:10:17.714Z,19.33
2023-03-12T00:17:36.025Z,14.55
2023-03-12T00:24:57.171Z,18.23
2023-03-12T00:32:15.447Z,16.45
2023-03-12T00:39:34.165Z,18.13
2023-03-12T00:46:54.617Z,17.90
2023-03-12T00:54:13.302Z,14.40
2023-03-12T01:01:31.529Z,13.60
2023-03-12T01:08:51.514Z,15.68
2023-03-12T01:16:10.082Z,13.27
2023-03-12T01:23:28.552Z,16.92
2023-03-12T01:30:49.471Z,13.65
2023-03-12T01:38:08.295Z,9.90
2023-03-12T01:46:03.392Z,11.38
2023-03-12T01:53:23.587Z,13.60
2023-03-12T02:00:42.328Z,8.93
2023-03-12T02:08:05.645Z,7.53
2023-03-12T02:15:24.696Z,7.72
2023-03-12T02:22:44.717Z,9.57
2023-03-12T02:30:06.374Z,7.75
2023-03-12T02:37:24.978Z,9.48
2023-03-12T02:44:43.910Z,5.82
2023-03-12T02:52:04.811Z,10.75
2023-03-12T02:59:26.164Z,6.68
2023-03-12T03:06:48.588Z,17.40
2023-03-12T03:14:08.217Z,9.35
2023-03-12T03:21:26.852Z,6.38
2023-03-12T03:28:45.196Z,11.70
2023-03-12T03:36:09.170Z,5.07
2023-03-12T03:43:32.329Z,3.95
2023-03-12T03:50:50.592Z,4.55
2023-03-12T03:58:10.574Z,5.40
2023-03-12T04:13:49.540Z,3.85
2023-03-12T04:21:16.427Z,4.03
2023-03-12T04:28:36.049Z,5.93
2023-03-12T04:35:56.640Z,7.22
2023-03-12T04:43:15.420Z,5.35
2023-03-12T04:50:34.759Z,6.45
2023-03-12T04:57:54.896Z,9.43
2023-03-12T05:05:15.928Z,4.90
2023-03-12T05:12:34.929Z,7.10
2023-03-12T05:19:55.711Z,5.57
2023-03-12T05:27:14.136Z,6.15
2023-03-12T05:34:33.685Z,4.45
2023-03-12T05:41:57.473Z,5.60
2023-03-12T05:49:19.806Z,11.02
2023-03-12T05:56:38.893Z,3.35
2023-03-12T06:04:00.720Z,6.65
2023-03-12T06:11:22.248Z,5.45
2023-03-12T06:18:40.476Z,3.92
2023-03-12T06:26:01.002Z,4.57
2023-03-12T06:33:20.122Z,3.55
2023-03-12T06:40:38.266Z,6.70
2023-03-12T06:47:57.867Z,5.10
2023-03-12T06:55:16.167Z,2.58
2023-03-12T07:02:34.550Z,9.70
2023-03-12T07:09:54.235Z,4.80
2023-03-12T07:17:15.256Z,8.88
2023-03-12T07:24:33.480Z,10.90
2023-03-12T07:31:53.177Z,6.07
2023-03-12T07:39:14.116Z,4.18
2023-03-12T07:46:32.604Z,5.32
2023-03-12T07:53:52.250Z,6.22
2023-03-12T08:01:10.486Z,6.10
2023-03-12T08:08:29.265Z,9.93
2023-03-12T08:15:48.861Z,5.03
2023-03-12T08:23:07.013Z,9.00
2023-03-12T08:30:25.318Z,7.57
2023-03-12T08:37:45.048Z,5.45
2023-03-12T08:45:03.533Z,3.83
2023-03-12T08:52:22.076Z,6.70
2023-03-12T08:59:42.040Z,8.05
2023-03-12T09:07:02.711Z,5.15
2023-03-12T09:30:20.803Z,6.60
2023-03-12T09:37:40.526Z,4.32
2023-03-12T09:45:01.947Z,3.05
2023-03-12T09:52:23.083Z,5.68
2023-03-12T09:59:42.812Z,7.90
2023-03-12T10:07:05.603Z,6.55
2023-03-12T10:14:33.705Z,4.80
2023-03-12T10:21:59.142Z,6.65
2023-03-12T10:29:20.182Z,4.25
2023-03-12T10:36:40.699Z,3.72
2023-03-12T10:44:03.451Z,3.00
2023-03-12T10:51:21.642Z,5.27
2023-03-12T10:58:41.327Z,8.52
2023-03-12T11:06:02.638Z,4.25
2023-03-12T11:13:28.014Z,7.93
2023-03-12T11:20:46.787Z,10.57
2023-03-12T11:28:07.075Z,12.05
2023-03-12T11:35:33.144Z,5.38
2023-03-12T11:43:00.421Z,4.95
2023-03-12T11:50:28.624Z,7.13
2023-03-12T11:57:58.275Z,4.82
2023-03-12T12:05:41.818Z,7.97
2023-03-12T12:13:08.396Z,3.85
2023-03-12T12:20:34.184Z,9.88
2023-03-12T12:28:06.890Z,5.30
2023-03-12T12:35:29.218Z,7.03
2023-03-12T12:42:55.807Z,3.97
2023-03-12T12:50:17.815Z,8.65
2023-03-12T12:57:41.046Z,5.88
2023-03-12T13:05:01.118Z,4.40
2023-03-12T13:12:27.589Z,5.68
2023-03-12T13:19:55.569Z,5.55
2023-03-12T13:27:24.071Z,8.10
2023-03-12T13:34:47.143Z,5.85
2023-03-12T13:42:36.591Z,6.07
2023-03-12T13:49:56.961Z,8.88
2023-03-12T13:57:41.351Z,3.70
2023-03-12T14:05:10.855Z,4.47
2023-03-12T14:12:33.879Z,4.85
2023-03-12T14:19:57.906Z,4.33
2023-03-12T14:27:20.777Z,7.13
2023-03-12T14:34:43.223Z,4.60
2023-03-12T14:42:05.103Z,7.38
2023-03-12T14:49:24.650Z,5.57
2023-03-12T14:56:45.553Z,6.22
2023-03-12T15:04:08.012Z,5.80
2023-03-12T15:11:29.357Z,10.60
2023-03-12T15:18:49.531Z,9.43
2023-03-12T15:26:14.099Z,11.73
2023-03-12T15:33:34.121Z,8.45
2023-03-12T15:40:54.300Z,9.18
2023-03-12T15:48:23.881Z,8.55
2023-03-12T15:55:44.298Z,9.38
2023-03-12T16:03:25.088Z,10.38
2023-03-12T16:10:44.048Z,7.60
2023-03-12T16:18:03.286Z,7.45
2023-03-12T16:25:23.755Z,5.30
2023-03-12T16:32:42.086Z,6.32
2023-03-12T16:40:00.312Z,8.00
2023-03-12T16:47:20.084Z,10.48
2023-03-12T16:54:38.370Z,9.57
2023-03-12T17:01:57.647Z,6.68
2023-03-12T17:09:17.270Z,8.05
2023-03-12T17:16:35.745Z,7.05
2023-03-12T17:23:53.956Z,10.40
2023-03-12T17:31:14.341Z,11.55
2023-03-12T17:38:33.566Z,15.40
2023-03-12T17:45:52.799Z,13.85
2023-03-12T17:53:16.386Z,18.67
2023-03-12T18:00:35.509Z,23.33
2023-03-12T18:07:56.931Z,17.88
2023-03-12T18:15:16.993Z,17.42
2023-03-12T18:22:35.437Z,15.52
2023-03-12T18:29:53.777Z,11.10
2023-03-12T18:37:13.558Z,10.38
2023-03-12T18:44:31.913Z,9.82
2023-03-12T18:51:53.557Z,10.98
2023-03-12T18:59:14.659Z,12.25
2023-03-12T19:06:48.141Z,20.35
2023-03-12T19:14:09.505Z,13.98
2023-03-12T19:21:29.792Z,12.90
2023-03-12T19:28:48.132Z,16.75
2023-03-12T19:36:07.185Z,21.88
2023-03-12T19:43:27.572Z,14.98
2023-03-12T19:50:45.977Z,17.63
2023-03-12T19:58:04.782Z,17.17
2023-03-12T20:05:24.418Z,17.77
2023-03-12T20:12:42.981Z,17.55
2023-03-12T20:20:01.607Z,15.88
2023-03-12T20:27:21.629Z,16.77
2023-03-12T20:34:39.866Z,13.85
2023-03-12T20:41:58.509Z,15.85
2023-03-12T20:49:18.873Z,13.25
2023-03-12T20:56:38.402Z,22.58
2023-03-12T21:03:58.705Z,11.30
2023-03-12T21:11:18.630Z,13.50
2023-03-12T21:18:37.190Z,10.93
2023-03-12T21:26:00.158Z,12.20
2023-03-12T21:33:20.073Z,9.20
2023-03-12T21:40:38.875Z,8.27
2023-03-12T21:47:57.208Z,12.55
2023-03-12T21:55:17.934Z,14.90
2023-03-12T22:02:36.184Z,16.38
2023-03-12T22:09:54.608Z,14.25
2023-03-12T22:17:14.767Z,13.00
2023-03-12T22:24:32.993Z,12.45
2023-03-12T22:31:51.384Z,16.67
2023-03-12T22:39:11.471Z,13.88
2023-03-12T22:46:30.289Z,15.25
2023-03-12T22:53:48.521Z,15.85
2023-03-12T23:01:09.889Z,15.27
2023-03-12T23:08:29.064Z,15.73
2023-03-12T23:15:47.424Z,15.45
2023-03-12T23:23:07.080Z,15.73
2023-03-12T23:30:25.293Z,18.48
2023-03-12T23:37:43.951Z,15.25
2023-03-12T23:45:03.734Z,17.60
2023-03-12T23:52:21.917Z,17.45
2023-03-12T23:59:40.346Z,16.45
